createdAt,value
2023-04-04T00:00:03.055Z,63
2023-04-04T00:20:02.803Z,63
2023-04-04T00:40:03.243Z,63
2023-04-04T01:00:02.723Z,64
2023-04-04T01:20:02.531Z,64
2023-04-04T01:40:02.973Z,64
2023-04-04T02:00:02.488Z,64
2023-04-04T02:20:02.785Z,64
2023-04-04T02:40:03.268Z,64
2023-04-04T03:00:02.684Z,65
2023-04-04T03:20:03.207Z,65
2023-04-04T03:40:02.629Z,65
2023-04-04T04:00:03.062Z,66
2023-04-04T04:20:02.740Z,66
2023-04-04T04:40:03.057Z,66
2023-04-04T05:00:02.397Z,65
2023-04-04T05:20:02.800Z,66
2023-04-04T05:40:03.208Z,66
2023-04-04T06:00:02.624Z,67
2023-04-04T06:20:03.148Z,68
2023-04-04T06:40:02.657Z,68
2023-04-04T07:00:03.032Z,67
2023-04-04T07:20:04.931Z,65
2023-04-04T07:40:02.517Z,62
2023-04-04T08:00:03.072Z,58
2023-04-04T08:20:02.968Z,54
2023-04-04T08:40:02.570Z,51
2023-04-04T09:00:03.576Z,50
2023-04-04T09:20:02.453Z,49
2023-04-04T09:40:02.927Z,46
2023-04-04T10:00:02.417Z,44
2023-04-04T10:20:03.434Z,44
2023-04-04T10:40:02.915Z,44
2023-04-04T11:00:02.850Z,44
2023-04-04T11:20:03.068Z,42
2023-04-04T11:40:03.275Z,42
2023-04-04T12:00:02.957Z,42
2023-04-04T12:20:03.749Z,40
2023-04-04T12:40:03.919Z,40
2023-04-04T13:00:02.506Z,40
2023-04-04T13:20:03.300Z,40
2023-04-04T13:40:03.018Z,40
2023-04-04T14:00:03.210Z,40
2023-04-04T14:20:02.701Z,40
2023-04-04T14:40:02.974Z,40
2023-04-04T15:00:02.804Z,40
2023-04-04T15:20:03.103Z,40
2023-04-04T15:40:02.509Z,40
2023-04-04T16:00:02.961Z,40
2023-04-04T16:20:02.832Z,41
2023-04-04T16:40:03.754Z,42
2023-04-04T17:00:03.391Z,43
2023-04-04T17:20:03.172Z,44
2023-04-04T17:40:03.311Z,45
2023-04-04T18:00:03.336Z,45
2023-04-04T18:20:03.274Z,47
2023-04-04T18:40:03.107Z,48
2023-04-04T19:00:02.606Z,50
2023-04-04T19:20:02.575Z,51
2023-04-04T19:40:03.061Z,52
2023-04-04T20:00:03.327Z,53
2023-04-04T20:20:02.926Z,54
2023-04-04T20:40:02.318Z,55
2023-04-04T21:00:03.201Z,56
2023-04-04T21:20:03.243Z,57
2023-04-04T21:40:03.199Z,57
2023-04-04T22:00:03.208Z,58
2023-04-04T22:20:03.081Z,58
2023-04-04T22:40:02.505Z,59
2023-04-04T23:00:03.421Z,59
2023-04-04T23:20:03.497Z,60
2023-04-04T23:40:02.737Z,60
